sensor_id;sensor_type;location;lat;lon;timestamp;pressure;altitude;pressure_sealevel;temperature;humidity
62524;BME280;53689;56.878;60.672;2022-09-06T00:01:07;97372.88;;;20.91;33.24
62524;BME280;53689;56.878;60.672;2022-09-06T00:03:34;97362.97;;;20.92;32.46
62524;BME280;53689;56.878;60.672;2022-09-06T00:06:08;97365.66;;;20.92;32.45
62524;BME280;53689;56.878;60.672;2022-09-06T00:08:36;97362.97;;;20.92;32.84
62524;BME280;53689;56.878;60.672;2022-09-06T00:11:04;97362.53;;;20.95;32.44
62524;BME280;53689;56.878;60.672;2022-09-06T00:13:31;97368.94;;;20.94;32.51
62524;BME280;53689;56.878;60.672;2022-09-06T00:16:04;97371.19;;;20.97;32.42
62524;BME280;53689;56.878;60.672;2022-09-06T00:18:32;97360.88;;;20.94;32.61
62524;BME280;53689;56.878;60.672;2022-09-06T00:21:00;97368.31;;;20.99;32.54
62524;BME280;53689;56.878;60.672;2022-09-06T00:23:29;97376.97;;;21.01;32.42
62524;BME280;53689;56.878;60.672;2022-09-06T00:26:03;97373.03;;;21.03;32.28
62524;BME280;53689;56.878;60.672;2022-09-06T00:28:31;97366.22;;;21.01;32.58
62524;BME280;53689;56.878;60.672;2022-09-06T00:30:58;97367.25;;;21.00;32.35
62524;BME280;53689;56.878;60.672;2022-09-06T00:33:33;97366.03;;;20.96;32.28
62524;BME280;53689;56.878;60.672;2022-09-06T00:36:01;97364.63;;;20.93;32.75
62524;BME280;53689;56.878;60.672;2022-09-06T00:38:30;97364.19;;;20.96;32.84
62524;BME280;53689;56.878;60.672;2022-09-06T00:40:58;97365.63;;;20.99;32.57
62524;BME280;53689;56.878;60.672;2022-09-06T00:43:25;97369.94;;;21.00;32.39
62524;BME280;53689;56.878;60.672;2022-09-06T00:45:54;97367.25;;;21.00;32.55
62524;BME280;53689;56.878;60.672;2022-09-06T00:48:22;97366.00;;;21.02;32.34
62524;BME280;53689;56.878;60.672;2022-09-06T00:50:52;97365.78;;;21.04;32.55
62524;BME280;53689;56.878;60.672;2022-09-06T00:53:21;97368.25;;;21.05;32.38
62524;BME280;53689;56.878;60.672;2022-09-06T00:55:51;97366.81;;;21.03;32.71
62524;BME280;53689;56.878;60.672;2022-09-06T00:58:19;97371.16;;;21.04;32.58
62524;BME280;53689;56.878;60.672;2022-09-06T01:00:47;97369.50;;;21.03;32.59
62524;BME280;53689;56.878;60.672;2022-09-06T01:03:14;97374.69;;;21.04;32.50
62524;BME280;53689;56.878;60.672;2022-09-06T01:05:48;97375.50;;;21.05;32.60
62524;BME280;53689;56.878;60.672;2022-09-06T01:08:29;97375.09;;;21.08;32.59
62524;BME280;53689;56.878;60.672;2022-09-06T01:11:22;97368.06;;;21.07;32.69
62524;BME280;53689;56.878;60.672;2022-09-06T01:14:00;97369.09;;;21.06;32.66
62524;BME280;53689;56.878;60.672;2022-09-06T01:16:42;97373.59;;;21.12;36.17
62524;BME280;53689;56.878;60.672;2022-09-06T01:22:38;97369.88;;;21.13;33.36
62524;BME280;53689;56.878;60.672;2022-09-06T01:25:29;97365.31;;;21.14;33.04
62524;BME280;53689;56.878;60.672;2022-09-06T01:28:27;97369.88;;;21.13;32.65
62524;BME280;53689;56.878;60.672;2022-09-06T01:31:02;97364.06;;;21.16;32.55
62524;BME280;53689;56.878;60.672;2022-09-06T01:33:37;97368.56;;;21.23;33.03
62524;BME280;53689;56.878;60.672;2022-09-06T01:36:11;97365.16;;;20.56;33.46
62524;BME280;53689;56.878;60.672;2022-09-06T01:38:40;97352.09;;;19.94;34.08
62524;BME280;53689;56.878;60.672;2022-09-06T01:41:07;97355.38;;;19.69;34.46
62524;BME280;53689;56.878;60.672;2022-09-06T01:43:39;97359.31;;;19.46;34.34
62524;BME280;53689;56.878;60.672;2022-09-06T01:46:13;97352.91;;;19.34;34.87
62524;BME280;53689;56.878;60.672;2022-09-06T01:49:07;97357.03;;;19.23;35.27
62524;BME280;53689;56.878;60.672;2022-09-06T01:51:51;97357.59;;;19.05;35.37
62524;BME280;53689;56.878;60.672;2022-09-06T01:54:34;97351.44;;;19.11;34.81
62524;BME280;53689;56.878;60.672;2022-09-06T01:57:14;97345.66;;;19.14;34.75
62524;BME280;53689;56.878;60.672;2022-09-06T02:00:06;97347.66;;;18.98;35.06
62524;BME280;53689;56.878;60.672;2022-09-06T02:02:48;97352.81;;;19.00;35.44
62524;BME280;53689;56.878;60.672;2022-09-06T02:05:23;97341.66;;;18.96;35.29
62524;BME280;53689;56.878;60.672;2022-09-06T02:07:55;97342.34;;;19.05;35.31
62524;BME280;53689;56.878;60.672;2022-09-06T02:10:27;97359.19;;;18.92;35.41
62524;BME280;53689;56.878;60.672;2022-09-06T02:12:59;97343.28;;;18.84;35.50
62524;BME280;53689;56.878;60.672;2022-09-06T02:15:32;97349.69;;;18.90;35.89
62524;BME280;53689;56.878;60.672;2022-09-06T02:18:04;97345.56;;;18.87;35.56
62524;BME280;53689;56.878;60.672;2022-09-06T02:20:35;97349.91;;;18.88;35.69
62524;BME280;53689;56.878;60.672;2022-09-06T02:23:06;97346.78;;;18.78;36.13
62524;BME280;53689;56.878;60.672;2022-09-06T02:25:36;97345.28;;;18.68;36.14
62524;BME280;53689;56.878;60.672;2022-09-06T02:28:05;97345.34;;;18.75;35.70
62524;BME280;53689;56.878;60.672;2022-09-06T02:30:38;97340.97;;;18.67;36.34
62524;BME280;53689;56.878;60.672;2022-09-06T02:33:09;97344.09;;;18.78;35.40
62524;BME280;53689;56.878;60.672;2022-09-06T02:35:43;97346.09;;;18.55;37.40
62524;BME280;53689;56.878;60.672;2022-09-06T02:38:12;97345.09;;;18.63;35.83
62524;BME280;53689;56.878;60.672;2022-09-06T02:40:39;97340.41;;;18.85;36.21
62524;BME280;53689;56.878;60.672;2022-09-06T02:43:07;97342.66;;;18.75;35.62
62524;BME280;53689;56.878;60.672;2022-09-06T02:45:36;97342.69;;;18.82;35.46
62524;BME280;53689;56.878;60.672;2022-09-06T02:48:04;97340.41;;;18.79;36.11
62524;BME280;53689;56.878;60.672;2022-09-06T02:50:31;97345.97;;;18.91;35.48
62524;BME280;53689;56.878;60.672;2022-09-06T02:53:04;97338.25;;;18.54;35.90
62524;BME280;53689;56.878;60.672;2022-09-06T02:55:32;97341.78;;;18.61;36.23
62524;BME280;53689;56.878;60.672;2022-09-06T02:58:00;97330.03;;;18.55;36.10
62524;BME280;53689;56.878;60.672;2022-09-06T03:00:28;97334.19;;;18.78;35.97
62524;BME280;53689;56.878;60.672;2022-09-06T03:02:57;97337.72;;;18.85;35.89
62524;BME280;53689;56.878;60.672;2022-09-06T03:05:25;97330.94;;;18.90;35.43
62524;BME280;53689;56.878;60.672;2022-09-06T03:07:54;97327.72;;;19.35;35.29
62524;BME280;53689;56.878;60.672;2022-09-06T03:10:22;97325.03;;;19.62;34.37
62524;BME280;53689;56.878;60.672;2022-09-06T03:12:50;97328.75;;;19.81;34.38
62524;BME280;53689;56.878;60.672;2022-09-06T03:15:17;97328.09;;;19.92;34.07
62524;BME280;53689;56.878;60.672;2022-09-06T03:17:45;97329.13;;;19.98;33.91
62524;BME280;53689;56.878;60.672;2022-09-06T03:20:14;97330.56;;;20.07;33.96
62524;BME280;53689;56.878;60.672;2022-09-06T03:22:41;97331.59;;;20.13;33.76
62524;BME280;53689;56.878;60.672;2022-09-06T03:25:10;97327.88;;;20.21;33.60
62524;BME280;53689;56.878;60.672;2022-09-06T03:27:37;97330.34;;;20.16;33.76
62524;BME280;53689;56.878;60.672;2022-09-06T03:30:05;97326.03;;;19.88;34.45
62524;BME280;53689;56.878;60.672;2022-09-06T03:32:33;97329.78;;;19.46;35.64
62524;BME280;53689;56.878;60.672;2022-09-06T03:35:02;97324.03;;;19.36;35.65
62524;BME280;53689;56.878;60.672;2022-09-06T03:37:31;97329.78;;;19.33;35.76
62524;BME280;53689;56.878;60.672;2022-09-06T03:39:58;97324.41;;;19.26;35.66
62524;BME280;53689;56.878;60.672;2022-09-06T03:42:26;97327.50;;;19.16;35.84
62524;BME280;53689;56.878;60.672;2022-09-06T03:44:54;97327.50;;;19.16;35.93
62524;BME280;53689;56.878;60.672;2022-09-06T03:47:21;97324.00;;;19.16;35.50
62524;BME280;53689;56.878;60.672;2022-09-06T03:49:49;97329.78;;;19.12;35.46
62524;BME280;53689;56.878;60.672;2022-09-06T03:52:17;97326.28;;;19.39;34.88
62524;BME280;53689;56.878;60.672;2022-09-06T03:54:46;97317.38;;;19.38;35.55
62524;BME280;53689;56.878;60.672;2022-09-06T03:57:13;97325.03;;;19.35;35.74
62524;BME280;53689;56.878;60.672;2022-09-06T03:59:41;97323.19;;;19.35;35.64
62524;BME280;53689;56.878;60.672;2022-09-06T04:02:08;97327.31;;;19.65;34.61
62524;BME280;53689;56.878;60.672;2022-09-06T04:04:36;97323.56;;;19.79;34.34
62524;BME280;53689;56.878;60.672;2022-09-06T04:07:03;97327.28;;;19.85;34.61
62524;BME280;53689;56.878;60.672;2022-09-06T04:09:31;97328.50;;;20.03;33.96
62524;BME280;53689;56.878;60.672;2022-09-06T04:12:00;97333.06;;;20.09;34.14
62524;BME280;53689;56.878;60.672;2022-09-06T04:14:27;97334.69;;;20.10;34.28
62524;BME280;53689;56.878;60.672;2022-09-06T04:16:55;97330.78;;;19.99;34.39
62524;BME280;53689;56.878;60.672;2022-09-06T04:19:22;97326.44;;;20.12;33.88
62524;BME280;53689;56.878;60.672;2022-09-06T04:21:50;97332.00;;;19.90;34.49
62524;BME280;53689;56.878;60.672;2022-09-06T04:24:17;97335.31;;;20.12;34.34
62524;BME280;53689;56.878;60.672;2022-09-06T04:26:45;97331.41;;;19.94;34.81
62524;BME280;53689;56.878;60.672;2022-09-06T04:29:14;97326.66;;;19.90;34.88
62524;BME280;53689;56.878;60.672;2022-09-06T04:31:41;97333.91;;;19.82;35.00
62524;BME280;53689;56.878;60.672;2022-09-06T04:34:09;97331.41;;;19.88;34.80
62524;BME280;53689;56.878;60.672;2022-09-06T04:36:36;97324.41;;;19.73;34.96
62524;BME280;53689;56.878;60.672;2022-09-06T04:39:04;97324.38;;;19.87;34.78
62524;BME280;53689;56.878;60.672;2022-09-06T04:41:32;97323.16;;;19.82;35.69
62524;BME280;53689;56.878;60.672;2022-09-06T04:43:59;97325.22;;;19.74;35.45
62524;BME280;53689;56.878;60.672;2022-09-06T04:46:29;97325.41;;;19.72;35.30
62524;BME280;53689;56.878;60.672;2022-09-06T04:48:56;97329.16;;;19.85;34.97
62524;BME280;53689;56.878;60.672;2022-09-06T04:51:24;97330.78;;;19.86;34.94
62524;BME280;53689;56.878;60.672;2022-09-06T04:53:51;97320.66;;;20.01;34.44
62524;BME280;53689;56.878;60.672;2022-09-06T04:56:20;97320.63;;;20.15;34.71
62524;BME280;53689;56.878;60.672;2022-09-06T04:58:50;97323.66;;;20.32;34.43
62524;BME280;53689;56.878;60.672;2022-09-06T05:01:17;97325.09;;;20.41;34.32
62524;BME280;53689;56.878;60.672;2022-09-06T05:03:46;97318.06;;;20.40;34.05
62524;BME280;53689;56.878;60.672;2022-09-06T05:06:18;97317.22;;;20.46;34.36
62524;BME280;53689;56.878;60.672;2022-09-06T05:08:46;97318.66;;;20.42;34.46
62524;BME280;53689;56.878;60.672;2022-09-06T05:11:14;97318.44;;;20.50;34.24
62524;BME280;53689;56.878;60.672;2022-09-06T05:13:42;97319.66;;;20.55;34.02
62524;BME280;53689;56.878;60.672;2022-09-06T05:16:09;97317.53;;;20.63;33.95
62524;BME280;53689;56.878;60.672;2022-09-06T05:18:37;97314.25;;;20.61;33.85
62524;BME280;53689;56.878;60.672;2022-09-06T05:21:06;97320.44;;;20.69;33.94
62524;BME280;53689;56.878;60.672;2022-09-06T05:23:34;97315.84;;;20.69;35.60
62524;BME280;53689;56.878;60.672;2022-09-06T05:26:01;97317.75;;;20.69;34.34
62524;BME280;53689;56.878;60.672;2022-09-06T05:28:29;97316.50;;;20.64;34.23
62524;BME280;53689;56.878;60.672;2022-09-06T05:31:05;97309.03;;;20.66;34.33
62524;BME280;53689;56.878;60.672;2022-09-06T05:33:32;97307.63;;;20.64;34.36
62524;BME280;53689;56.878;60.672;2022-09-06T05:36:00;97306.34;;;20.66;34.48
62524;BME280;53689;56.878;60.672;2022-09-06T05:38:29;97303.81;;;20.78;33.78
62524;BME280;53689;56.878;60.672;2022-09-06T05:40:57;97300.31;;;20.78;33.97
62524;BME280;53689;56.878;60.672;2022-09-06T05:43:25;97312.09;;;20.84;33.89
62524;BME280;53689;56.878;60.672;2022-09-06T05:45:52;97303.34;;;20.95;33.87
62524;BME280;53689;56.878;60.672;2022-09-06T05:48:20;97300.03;;;20.93;33.79
62524;BME280;53689;56.878;60.672;2022-09-06T05:50:58;97300.28;;;20.85;34.00
62524;BME280;53689;56.878;60.672;2022-09-06T05:53:26;97301.09;;;20.85;33.87
62524;BME280;53689;56.878;60.672;2022-09-06T05:55:55;97301.53;;;20.82;34.09
62524;BME280;53689;56.878;60.672;2022-09-06T05:58:22;97290.56;;;20.77;34.16
62524;BME280;53689;56.878;60.672;2022-09-06T06:00:50;97291.84;;;20.74;34.20
62524;BME280;53689;56.878;60.672;2022-09-06T06:03:17;97290.56;;;20.77;34.20
62524;BME280;53689;56.878;60.672;2022-09-06T06:05:45;97286.41;;;20.81;34.32
62524;BME280;53689;56.878;60.672;2022-09-06T06:08:13;97288.09;;;20.75;34.49
62524;BME280;53689;56.878;60.672;2022-09-06T06:10:41;97295.13;;;20.83;33.86
62524;BME280;53689;56.878;60.672;2022-09-06T06:13:09;97286.19;;;20.89;34.45
62524;BME280;53689;56.878;60.672;2022-09-06T06:15:37;97285.19;;;20.84;34.17
62524;BME280;53689;56.878;60.672;2022-09-06T06:18:05;97293.66;;;20.80;34.14
62524;BME280;53689;56.878;60.672;2022-09-06T06:20:33;97283.91;;;20.86;34.26
62524;BME280;53689;56.878;60.672;2022-09-06T06:23:00;97284.28;;;20.97;33.92
62524;BME280;53689;56.878;60.672;2022-09-06T06:25:28;97283.91;;;20.93;33.96
62524;BME280;53689;56.878;60.672;2022-09-06T06:30:24;97282.19;;;20.99;33.87
62524;BME280;53689;56.878;60.672;2022-09-06T06:32:51;97281.03;;;21.13;33.62
62524;BME280;53689;56.878;60.672;2022-09-06T06:35:19;97287.47;;;21.12;33.57
62524;BME280;53689;56.878;60.672;2022-09-06T06:37:46;97274.63;;;21.14;33.81
62524;BME280;53689;56.878;60.672;2022-09-06T06:40:14;97272.81;;;21.08;33.11
62524;BME280;53689;56.878;60.672;2022-09-06T06:42:42;97274.78;;;21.19;33.31
62524;BME280;53689;56.878;60.672;2022-09-06T06:45:10;97271.50;;;21.17;33.72
62524;BME280;53689;56.878;60.672;2022-09-06T06:47:39;97266.38;;;21.09;33.71
62524;BME280;53689;56.878;60.672;2022-09-06T06:50:07;97269.69;;;21.11;33.74
62524;BME280;53689;56.878;60.672;2022-09-06T06:52:34;97265.47;;;20.90;34.06
62524;BME280;53689;56.878;60.672;2022-09-06T06:55:02;97273.31;;;21.24;33.24
62524;BME280;53689;56.878;60.672;2022-09-06T06:57:30;97264.34;;;21.04;33.78
62524;BME280;53689;56.878;60.672;2022-09-06T06:59:57;97256.66;;;21.08;33.38
62524;BME280;53689;56.878;60.672;2022-09-06T07:02:25;97260.50;;;21.19;34.11
62524;BME280;53689;56.878;60.672;2022-09-06T07:04:54;97262.84;;;21.09;33.32
62524;BME280;53689;56.878;60.672;2022-09-06T07:07:21;97250.16;;;20.90;33.85
62524;BME280;53689;56.878;60.672;2022-09-06T07:09:57;97257.28;;;21.10;33.48
62524;BME280;53689;56.878;60.672;2022-09-06T07:12:44;97254.19;;;21.06;33.46
62524;BME280;53689;56.878;60.672;2022-09-06T07:15:12;97256.66;;;21.08;33.33
62524;BME280;53689;56.878;60.672;2022-09-06T07:17:39;97253.13;;;20.82;34.16
62524;BME280;53689;56.878;60.672;2022-09-06T07:20:09;97243.63;;;20.73;34.12
62524;BME280;53689;56.878;60.672;2022-09-06T07:22:38;97249.00;;;21.12;33.43
62524;BME280;53689;56.878;60.672;2022-09-06T07:25:07;97245.19;;;20.94;34.83
62524;BME280;53689;56.878;60.672;2022-09-06T07:27:34;97241.00;;;20.66;34.23
62524;BME280;53689;56.878;60.672;2022-09-06T07:30:18;97237.50;;;20.98;33.43
62524;BME280;53689;56.878;60.672;2022-09-06T07:32:46;97239.47;;;21.09;33.23
62524;BME280;53689;56.878;60.672;2022-09-06T07:35:15;97239.41;;;21.16;33.00
62524;BME280;53689;56.878;60.672;2022-09-06T07:37:42;97243.47;;;21.00;33.59
62524;BME280;53689;56.878;60.672;2022-09-06T07:40:17;97241.06;;;21.17;33.35
62524;BME280;53689;56.878;60.672;2022-09-06T07:42:44;97224.22;;;20.71;33.78
62524;BME280;53689;56.878;60.672;2022-09-06T07:45:12;97224.56;;;20.49;33.61
62524;BME280;53689;56.878;60.672;2022-09-06T07:47:40;97228.66;;;20.51;33.07
62524;BME280;53689;56.878;60.672;2022-09-06T07:50:24;97224.06;;;20.59;33.38
62524;BME280;53689;56.878;60.672;2022-09-06T07:53:12;97212.19;;;20.73;33.20
62524;BME280;53689;56.878;60.672;2022-09-06T07:55:45;97217.13;;;20.76;33.09
62524;BME280;53689;56.878;60.672;2022-09-06T07:58:13;97217.34;;;20.75;33.09
62524;BME280;53689;56.878;60.672;2022-09-06T08:00:40;97206.53;;;20.88;32.71
62524;BME280;53689;56.878;60.672;2022-09-06T08:03:08;97212.41;;;20.72;32.91
62524;BME280;53689;56.878;60.672;2022-09-06T08:05:37;97210.22;;;20.94;32.03
62524;BME280;53689;56.878;60.672;2022-09-06T08:08:25;97202.34;;;20.92;31.76
62524;BME280;53689;56.878;60.672;2022-09-06T08:11:12;97210.91;;;21.33;30.96
62524;BME280;53689;56.878;60.672;2022-09-06T08:13:40;97198.94;;;21.48;31.11
62524;BME280;53689;56.878;60.672;2022-09-06T08:16:09;97208.91;;;21.47;30.62
62524;BME280;53689;56.878;60.672;2022-09-06T08:18:37;97200.16;;;21.52;30.76
62524;BME280;53689;56.878;60.672;2022-09-06T08:21:07;97205.00;;;21.62;30.75
62524;BME280;53689;56.878;60.672;2022-09-06T08:23:40;97201.25;;;21.70;30.60
62524;BME280;53689;56.878;60.672;2022-09-06T08:26:07;97199.16;;;21.72;30.47
62524;BME280;53689;56.878;60.672;2022-09-06T08:28:35;97191.66;;;21.74;30.44
62524;BME280;53689;56.878;60.672;2022-09-06T08:31:07;97190.94;;;21.60;30.64
62524;BME280;53689;56.878;60.672;2022-09-06T08:33:35;97188.13;;;21.55;31.05
62524;BME280;53689;56.878;60.672;2022-09-06T08:36:03;97200.06;;;21.59;30.96
62524;BME280;53689;56.878;60.672;2022-09-06T08:38:33;97194.22;;;21.69;30.27
62524;BME280;53689;56.878;60.672;2022-09-06T08:41:09;97197.88;;;21.74;30.25
62524;BME280;53689;56.878;60.672;2022-09-06T08:43:37;97194.22;;;21.69;30.42
62524;BME280;53689;56.878;60.672;2022-09-06T08:46:06;97190.72;;;21.61;30.64
62524;BME280;53689;56.878;60.672;2022-09-06T08:48:35;97174.53;;;21.68;30.63
62524;BME280;53689;56.878;60.672;2022-09-06T08:51:26;97179.44;;;21.71;30.29
62524;BME280;53689;56.878;60.672;2022-09-06T08:54:11;97182.53;;;21.75;30.29
62524;BME280;53689;56.878;60.672;2022-09-06T08:56:50;97181.41;;;21.83;30.28
62524;BME280;53689;56.878;60.672;2022-09-06T08:59:21;97176.44;;;21.98;30.11
62524;BME280;53689;56.878;60.672;2022-09-06T09:01:57;97169.81;;;21.82;30.42
62524;BME280;53689;56.878;60.672;2022-09-06T09:04:29;97167.47;;;21.86;30.79
62524;BME280;53689;56.878;60.672;2022-09-06T09:07:02;97160.16;;;21.74;30.84
62524;BME280;53689;56.878;60.672;2022-09-06T09:09:35;97159.09;;;21.75;30.44
62524;BME280;53689;56.878;60.672;2022-09-06T09:12:02;97160.28;;;21.98;30.23
62524;BME280;53689;56.878;60.672;2022-09-06T09:14:34;97155.13;;;21.97;30.33
62524;BME280;53689;56.878;60.672;2022-09-06T09:17:14;97153.94;;;21.74;31.07
62524;BME280;53689;56.878;60.672;2022-09-06T09:19:42;97166.13;;;21.58;31.73
62524;BME280;53689;56.878;60.672;2022-09-06T09:22:11;97170.34;;;21.28;32.13
62524;BME280;53689;56.878;60.672;2022-09-06T09:24:40;97157.25;;;21.32;32.39
62524;BME280;53689;56.878;60.672;2022-09-06T09:27:09;97149.84;;;21.27;31.92
62524;BME280;53689;56.878;60.672;2022-09-06T09:29:56;97159.56;;;21.10;33.03
62524;BME280;53689;56.878;60.672;2022-09-06T09:32:44;97155.78;;;21.17;32.02
62524;BME280;53689;56.878;60.672;2022-09-06T09:35:18;97153.28;;;21.16;32.16
62524;BME280;53689;56.878;60.672;2022-09-06T09:37:46;97158.16;;;21.07;32.09
62524;BME280;53689;56.878;60.672;2022-09-06T09:40:30;97153.19;;;21.04;32.40
62524;BME280;53689;56.878;60.672;2022-09-06T09:43:11;97152.75;;;21.07;32.44
62524;BME280;53689;56.878;60.672;2022-09-06T09:45:39;97149.94;;;21.20;32.04
62524;BME280;53689;56.878;60.672;2022-09-06T09:48:19;97155.69;;;21.24;31.60
62524;BME280;53689;56.878;60.672;2022-09-06T09:50:47;97156.16;;;21.21;32.66
62524;BME280;53689;56.878;60.672;2022-09-06T09:53:17;97144.41;;;21.34;31.59
62524;BME280;53689;56.878;60.672;2022-09-06T09:55:47;97142.03;;;21.44;31.22
62524;BME280;53689;56.878;60.672;2022-09-06T09:58:20;97137.38;;;21.33;31.42
62524;BME280;53689;56.878;60.672;2022-09-06T10:01:08;97141.28;;;21.37;31.18
62524;BME280;53689;56.878;60.672;2022-09-06T10:03:36;97136.78;;;21.49;30.86
62524;BME280;53689;56.878;60.672;2022-09-06T10:06:25;97142.16;;;21.49;31.15
62524;BME280;53689;56.878;60.672;2022-09-06T10:09:15;97140.44;;;21.37;31.28
62524;BME280;53689;56.878;60.672;2022-09-06T10:11:52;97133.78;;;21.58;30.72
62524;BME280;53689;56.878;60.672;2022-09-06T10:14:26;97134.41;;;21.79;29.98
62524;BME280;53689;56.878;60.672;2022-09-06T10:16:54;97119.06;;;21.79;30.05
62524;BME280;53689;56.878;60.672;2022-09-06T10:19:30;97122.88;;;21.71;30.93
62524;BME280;53689;56.878;60.672;2022-09-06T10:22:02;97122.19;;;21.76;30.48
62524;BME280;53689;56.878;60.672;2022-09-06T10:24:41;97115.59;;;21.90;29.94
62524;BME280;53689;56.878;60.672;2022-09-06T10:27:22;97115.59;;;21.90;29.67
62524;BME280;53689;56.878;60.672;2022-09-06T10:29:57;97109.56;;;21.39;32.46
62524;BME280;53689;56.878;60.672;2022-09-06T10:32:36;97093.59;;;20.75;30.80
62524;BME280;53689;56.878;60.672;2022-09-06T10:35:14;97097.09;;;20.82;31.40
62524;BME280;53689;56.878;60.672;2022-09-06T10:38:10;97085.63;;;21.49;30.42
62524;BME280;53689;56.878;60.672;2022-09-06T10:40:52;97082.84;;;21.75;29.69
62524;BME280;53689;56.878;60.672;2022-09-06T10:43:26;97078.75;;;21.72;30.03
62524;BME280;53689;56.878;60.672;2022-09-06T10:45:58;97082.47;;;21.53;30.72
62524;BME280;53689;56.878;60.672;2022-09-06T10:48:29;97086.69;;;21.67;29.81
62524;BME280;53689;56.878;60.672;2022-09-06T10:51:02;97079.34;;;21.74;29.66
62524;BME280;53689;56.878;60.672;2022-09-06T10:53:37;97090.81;;;21.70;29.65
62524;BME280;53689;56.878;60.672;2022-09-06T10:56:09;97078.50;;;21.74;29.43
62524;BME280;53689;56.878;60.672;2022-09-06T10:58:44;97069.75;;;21.79;29.25
62524;BME280;53689;56.878;60.672;2022-09-06T11:01:37;97061.81;;;21.84;28.97
62524;BME280;53689;56.878;60.672;2022-09-06T11:04:08;97072.03;;;21.94;29.00
62524;BME280;53689;56.878;60.672;2022-09-06T11:06:43;97076.72;;;21.86;29.15
62524;BME280;53689;56.878;60.672;2022-09-06T11:09:16;97081.56;;;22.08;28.74
62524;BME280;53689;56.878;60.672;2022-09-06T11:11:48;97083.91;;;22.04;28.80
62524;BME280;53689;56.878;60.672;2022-09-06T11:14:20;97087.06;;;22.01;28.93
62524;BME280;53689;56.878;60.672;2022-09-06T11:16:53;97079.03;;;22.25;28.21
62524;BME280;53689;56.878;60.672;2022-09-06T11:19:26;97086.44;;;21.99;28.79
62524;BME280;53689;56.878;60.672;2022-09-06T11:25:35;97080.34;;;21.92;28.89
62524;BME280;53689;56.878;60.672;2022-09-06T11:28:09;97077.19;;;21.95;28.71
62524;BME280;53689;56.878;60.672;2022-09-06T11:30:42;97072.28;;;22.04;28.74
62524;BME280;53689;56.878;60.672;2022-09-06T11:33:19;97079.41;;;21.98;28.56
62524;BME280;53689;56.878;60.672;2022-09-06T11:35:49;97082.00;;;22.05;28.51
62524;BME280;53689;56.878;60.672;2022-09-06T11:38:21;97076.88;;;22.03;28.53
62524;BME280;53689;56.878;60.672;2022-09-06T11:40:56;97084.16;;;22.15;28.09
62524;BME280;53689;56.878;60.672;2022-09-06T11:43:45;97084.84;;;22.10;28.42
62524;BME280;53689;56.878;60.672;2022-09-06T11:47:02;97084.03;;;22.10;28.36
62524;BME280;53689;56.878;60.672;2022-09-06T11:49:32;97077.31;;;22.00;28.59
62524;BME280;53689;56.878;60.672;2022-09-06T11:52:00;97078.38;;;21.99;29.18
62524;BME280;53689;56.878;60.672;2022-09-06T11:54:36;97075.56;;;21.94;28.69
62524;BME280;53689;56.878;60.672;2022-09-06T11:57:14;97077.94;;;22.02;28.37
62524;BME280;53689;56.878;60.672;2022-09-06T11:59:51;97071.00;;;22.07;28.63
62524;BME280;53689;56.878;60.672;2022-09-06T12:02:38;97068.91;;;22.09;28.36
62524;BME280;53689;56.878;60.672;2022-09-06T12:05:15;97071.84;;;22.07;28.72
62524;BME280;53689;56.878;60.672;2022-09-06T12:08:12;97062.13;;;22.06;28.69
62524;BME280;53689;56.878;60.672;2022-09-06T12:10:59;97060.91;;;22.02;29.16
62524;BME280;53689;56.878;60.672;2022-09-06T12:13:38;97065.72;;;22.00;29.14
62524;BME280;53689;56.878;60.672;2022-09-06T12:16:10;97063.16;;;22.05;28.50
62524;BME280;53689;56.878;60.672;2022-09-06T12:18:58;97053.22;;;22.06;28.50
62524;BME280;53689;56.878;60.672;2022-09-06T12:21:39;97054.03;;;22.06;28.47
62524;BME280;53689;56.878;60.672;2022-09-06T12:24:08;97055.91;;;22.06;28.51
62524;BME280;53689;56.878;60.672;2022-09-06T12:27:08;97050.72;;;22.04;28.74
62524;BME280;53689;56.878;60.672;2022-09-06T12:29:37;97048.41;;;22.08;28.06
62524;BME280;53689;56.878;60.672;2022-09-06T12:32:05;97050.50;;;22.06;28.51
62524;BME280;53689;56.878;60.672;2022-09-06T12:34:36;97041.25;;;22.01;28.59
62524;BME280;53689;56.878;60.672;2022-09-06T12:37:06;97041.69;;;21.98;28.65
62524;BME280;53689;56.878;60.672;2022-09-06T12:39:34;97037.94;;;21.99;28.68
62524;BME280;53689;56.878;60.672;2022-09-06T12:42:03;97045.22;;;21.99;28.59
62524;BME280;53689;56.878;60.672;2022-09-06T12:44:33;97038.31;;;22.03;28.89
62524;BME280;53689;56.878;60.672;2022-09-06T12:47:04;97039.16;;;22.03;28.86
62524;BME280;53689;56.878;60.672;2022-09-06T12:49:37;97035.97;;;22.07;28.56
62524;BME280;53689;56.878;60.672;2022-09-06T12:52:06;97037.25;;;22.04;28.32
62524;BME280;53689;56.878;60.672;2022-09-06T12:54:41;97025.66;;;22.03;28.67
62524;BME280;53689;56.878;60.672;2022-09-06T12:57:16;97022.25;;;21.96;29.54
62524;BME280;53689;56.878;60.672;2022-09-06T12:59:53;97018.72;;;21.96;29.09
62524;BME280;53689;56.878;60.672;2022-09-06T13:02:27;97019.91;;;22.00;28.73
62524;BME280;53689;56.878;60.672;2022-09-06T13:05:02;97026.47;;;22.04;28.72
62524;BME280;53689;56.878;60.672;2022-09-06T13:07:31;97023.16;;;21.90;28.78
62524;BME280;53689;56.878;60.672;2022-09-06T13:09:59;97028.44;;;21.66;29.38
62524;BME280;53689;56.878;60.672;2022-09-06T13:12:30;97032.06;;;21.90;28.91
62524;BME280;53689;56.878;60.672;2022-09-06T13:15:03;97032.03;;;21.79;29.50
62524;BME280;53689;56.878;60.672;2022-09-06T13:17:31;97030.91;;;21.98;28.99
62524;BME280;53689;56.878;60.672;2022-09-06T13:20:09;97026.25;;;22.06;28.44
62524;BME280;53689;56.878;60.672;2022-09-06T13:22:40;97025.09;;;22.01;29.05
62524;BME280;53689;56.878;60.672;2022-09-06T13:25:16;97017.34;;;22.05;28.76